Time;durP1;ratioP1;P1;durP2;ratioP2;P2;SDS_P1;SDS_P2;PMS_P1;PMS_P2;Temp;Humidity;BMP_temperature;BMP_pressure;BME280_temperature;BME280_humidity;BME280_pressure;Samples;Min_cycle;Max_cycle;Signal;HPM_P1;HPM_P2
2022/09/26 00:01:19;;;;;;;;;;;12.40;99.90;;;;;;5062505;28;19999;-77
2022/09/26 00:03:46;;;;;;;;;;;12.40;99.90;;;;;;5062215;28;19936;-77
2022/09/26 00:06:12;;;;;;;;;;;12.30;99.90;;;;;;5060547;28;19921;-78
2022/09/26 00:08:38;;;;;;;;;;;12.40;99.90;;;;;;5060661;28;19989;-78
2022/09/26 00:11:06;;;;;;;;;;;12.30;99.90;;;;;;5062539;28;19927;-77
2022/09/26 00:13:33;;;;;;;;;;;12.40;99.90;;;;;;5062227;28;19922;-77
2022/09/26 00:15:58;;;;;;;;;;;12.40;99.90;;;;;;5062746;28;19967;-77
2022/09/26 00:18:24;;;;;;;;;;;12.30;99.90;;;;;;5062173;28;19920;-78
2022/09/26 00:20:49;;;;;;;;;;;12.30;99.90;;;;;;5060449;28;19917;-78
2022/09/26 00:23:15;;;;;;;;;;;12.30;99.90;;;;;;5061677;28;19958;-77
2022/09/26 00:25:48;;;;;;;;;;;12.30;99.90;;;;;;5061804;28;19959;-77
2022/09/26 00:28:14;;;;;;;;;;;12.20;99.90;;;;;;5061481;28;19924;-78
2022/09/26 00:30:39;;;;;;;;;;;12.20;99.90;;;;;;5062785;28;19916;-77
2022/09/26 00:33:05;;;;;;;;;;;12.20;99.90;;;;;;5060393;28;19924;-77
2022/09/26 00:35:31;;;;;;;;;;;12.10;99.90;;;;;;5061746;28;20010;-77
2022/09/26 00:37:56;;;;;;;;;;;12.10;99.90;;;;;;5061365;28;19921;-77
2022/09/26 00:40:25;;;;;;;;;;;12.10;99.90;;;;;;5062604;28;19912;-77
2022/09/26 00:42:52;;;;;;;;;;;12.00;99.90;;;;;;5062432;28;20458;-78
2022/09/26 00:45:17;;;;;;;;;;;12.10;99.90;;;;;;5065441;28;19923;-78
2022/09/26 00:47:49;;;;;;;;;;;12.00;99.90;;;;;;5066860;28;19916;-77
2022/09/26 00:50:20;;;;;;;;;;;12.00;99.90;;;;;;5066209;28;20340;-77
2022/09/26 00:52:58;;;;;;;;;;;11.90;99.90;;;;;;5066081;28;20019;-77
2022/09/26 00:55:27;;;;;;;;;;;12.00;99.90;;;;;;5066362;28;19916;-77
2022/09/26 00:57:57;;;;;;;;;;;12.00;99.90;;;;;;5066247;28;20014;-77
2022/09/26 01:00:23;;;;;;;;;;;11.90;99.90;;;;;;5065753;28;19924;-77
2022/09/26 01:02:49;;;;;;;;;;;11.90;99.90;;;;;;5066170;28;19945;-77
2022/09/26 01:05:16;;;;;;;;;;;11.90;99.90;;;;;;5065626;28;20456;-78
2022/09/26 01:07:42;;;;;;;;;;;11.80;99.90;;;;;;5057383;28;20578;-77
2022/09/26 01:10:09;;;;;;;;;;;11.80;99.90;;;;;;5064859;28;19917;-77
2022/09/26 01:12:35;;;;;;;;;;;11.70;99.90;;;;;;5065850;28;19924;-77
2022/09/26 01:15:01;;;;;;;;;;;11.60;99.90;;;;;;5064836;28;19994;-77
2022/09/26 01:17:26;;;;;;;;;;;11.60;99.90;;;;;;5065734;28;19920;-77
2022/09/26 01:20:11;;;;;;;;;;;11.60;99.90;;;;;;5064908;28;19924;-77
2022/09/26 01:22:55;;;;;;;;;;;11.50;99.90;;;;;;5064895;28;20309;-77
2022/09/26 01:25:26;;;;;;;;;;;11.50;99.90;;;;;;5057056;28;20779;-77
2022/09/26 01:27:55;;;;;;;;;;;11.60;99.90;;;;;;5063814;28;20384;-78
2022/09/26 01:30:26;;;;;;;;;;;11.60;99.90;;;;;;5065176;28;19943;-76
2022/09/26 01:33:11;;;;;;;;;;;11.60;99.90;;;;;;5066714;28;19921;-77
2022/09/26 01:35:45;;;;;;;;;;;11.60;99.90;;;;;;5065378;28;19920;-77
2022/09/26 01:38:10;;;;;;;;;;;11.60;99.90;;;;;;5065186;28;19928;-78
2022/09/26 01:40:48;;;;;;;;;;;11.50;99.90;;;;;;5065174;28;19928;-77
2022/09/26 01:43:29;;;;;;;;;;;11.50;99.90;;;;;;5060471;28;19916;-77
2022/09/26 01:46:03;;;;;;;;;;;11.50;99.90;;;;;;5065537;28;19916;-78
2022/09/26 01:48:32;;;;;;;;;;;11.50;99.90;;;;;;5064488;28;20037;-77
2022/09/26 01:51:04;;;;;;;;;;;11.50;99.90;;;;;;5065224;28;19917;-77
2022/09/26 01:53:38;;;;;;;;;;;11.40;99.90;;;;;;5064482;28;20142;-78
2022/09/26 01:56:06;;;;;;;;;;;11.40;99.90;;;;;;5063867;28;19999;-77
2022/09/26 01:58:34;;;;;;;;;;;11.40;99.90;;;;;;5063551;28;19924;-77
2022/09/26 02:01:03;;;;;;;;;;;11.40;99.90;;;;;;5064740;28;19916;-77
2022/09/26 02:03:30;;;;;;;;;;;11.40;99.90;;;;;;5063775;28;19982;-77
2022/09/26 02:06:08;;;;;;;;;;;11.40;99.90;;;;;;5064670;28;19927;-77
2022/09/26 02:08:41;;;;;;;;;;;11.30;99.90;;;;;;5064912;28;19916;-77
2022/09/26 02:11:12;;;;;;;;;;;11.40;99.90;;;;;;5064984;28;19921;-77
2022/09/26 02:13:56;;;;;;;;;;;11.40;99.90;;;;;;5063778;28;19916;-76
2022/09/26 02:16:28;;;;;;;;;;;11.30;99.90;;;;;;5063490;28;19963;-77
2022/09/26 02:18:57;;;;;;;;;;;11.20;99.90;;;;;;5062545;28;19924;-77
2022/09/26 02:21:23;;;;;;;;;;;11.20;99.90;;;;;;5063137;28;19917;-77
2022/09/26 02:23:50;;;;;;;;;;;11.10;99.90;;;;;;5063701;28;19916;-77
2022/09/26 02:26:16;;;;;;;;;;;11.20;99.90;;;;;;5064172;28;19916;-77
2022/09/26 02:28:42;;;;;;;;;;;11.20;99.90;;;;;;5063250;28;19916;-77
2022/09/26 02:31:08;;;;;;;;;;;11.10;99.90;;;;;;5064006;28;19917;-77
2022/09/26 02:33:34;;;;;;;;;;;11.10;99.90;;;;;;5063640;28;20023;-77
2022/09/26 02:36:02;;;;;;;;;;;11.10;99.90;;;;;;5062090;28;19928;-77
2022/09/26 02:38:28;;;;;;;;;;;11.10;99.90;;;;;;5063803;28;19939;-77
2022/09/26 02:41:15;;;;;;;;;;;11.00;99.90;;;;;;5064289;28;20164;-77
2022/09/26 02:44:00;;;;;;;;;;;11.00;99.90;;;;;;5063487;28;19923;-77
2022/09/26 02:46:32;;;;;;;;;;;11.00;99.90;;;;;;5064005;28;19921;-77
2022/09/26 02:49:10;;;;;;;;;;;11.20;99.90;;;;;;5063498;28;20518;-77
2022/09/26 02:51:35;;;;;;;;;;;11.30;99.90;;;;;;5060042;28;19916;-77
2022/09/26 02:54:11;;;;;;;;;;;11.30;99.90;;;;;;5063094;28;19923;-77
2022/09/26 02:57:02;;;;;;;;;;;11.40;99.90;;;;;;5062985;28;19921;-77
2022/09/26 02:59:37;;;;;;;;;;;11.40;99.90;;;;;;5063087;28;20062;-77
2022/09/26 03:02:16;;;;;;;;;;;11.20;99.90;;;;;;5061478;28;19932;-77
2022/09/26 03:04:47;;;;;;;;;;;11.20;99.90;;;;;;5061861;28;20711;-77
2022/09/26 03:07:18;;;;;;;;;;;11.00;99.90;;;;;;5062425;28;20401;-77
2022/09/26 03:09:44;;;;;;;;;;;11.00;99.90;;;;;;5063016;28;19916;-77
2022/09/26 03:12:10;;;;;;;;;;;10.90;99.90;;;;;;5062388;28;19916;-77
2022/09/26 03:14:38;;;;;;;;;;;10.90;99.90;;;;;;5062931;28;19924;-77
2022/09/26 03:17:03;;;;;;;;;;;11.00;99.90;;;;;;5062748;28;19931;-77
2022/09/26 03:19:40;;;;;;;;;;;10.80;99.90;;;;;;5061451;28;19954;-77
2022/09/26 03:22:06;;;;;;;;;;;10.70;99.90;;;;;;5063218;28;19917;-77
2022/09/26 03:24:34;;;;;;;;;;;10.70;99.90;;;;;;5063476;28;19958;-77
2022/09/26 03:27:01;;;;;;;;;;;10.80;99.90;;;;;;5063175;28;20355;-77
2022/09/26 03:29:27;;;;;;;;;;;10.90;99.90;;;;;;5062836;28;20316;-77
2022/09/26 03:31:52;;;;;;;;;;;11.00;99.90;;;;;;5063173;28;19916;-77
2022/09/26 03:34:18;;;;;;;;;;;11.00;99.90;;;;;;5062879;28;19920;-77
2022/09/26 03:36:44;;;;;;;;;;;10.90;99.90;;;;;;5062748;28;20521;-77
2022/09/26 03:39:10;;;;;;;;;;;10.90;99.90;;;;;;5062795;28;19968;-77
2022/09/26 03:41:35;;;;;;;;;;;10.90;99.90;;;;;;5062956;28;19967;-77
2022/09/26 03:44:01;;;;;;;;;;;10.90;99.90;;;;;;5061085;28;19970;-78
2022/09/26 03:46:27;;;;;;;;;;;11.10;99.90;;;;;;5062977;28;19973;-77
2022/09/26 03:48:52;;;;;;;;;;;10.90;99.90;;;;;;5061880;28;19916;-78
2022/09/26 03:51:19;;;;;;;;;;;11.00;99.90;;;;;;5061201;28;19921;-77
2022/09/26 03:53:48;;;;;;;;;;;11.00;99.90;;;;;;5062236;28;19912;-78
2022/09/26 03:56:15;;;;;;;;;;;11.00;99.90;;;;;;5062354;28;20285;-78
2022/09/26 03:58:41;;;;;;;;;;;11.00;99.90;;;;;;5062780;28;19936;-76
2022/09/26 04:01:16;;;;;;;;;;;11.00;99.90;;;;;;5063423;28;19924;-77
2022/09/26 04:03:43;;;;;;;;;;;11.10;99.90;;;;;;5062319;28;19931;-77
2022/09/26 04:06:09;;;;;;;;;;;11.10;99.90;;;;;;5062581;28;19917;-78
2022/09/26 04:08:35;;;;;;;;;;;11.00;99.90;;;;;;5062781;28;19916;-77
2022/09/26 04:11:05;;;;;;;;;;;11.10;99.90;;;;;;5062291;28;19923;-77
2022/09/26 04:13:31;;;;;;;;;;;11.10;99.90;;;;;;5061179;28;19916;-77
2022/09/26 04:15:57;;;;;;;;;;;11.10;99.90;;;;;;5060701;28;19924;-77
2022/09/26 04:18:22;;;;;;;;;;;11.10;99.90;;;;;;5061008;28;20460;-78
2022/09/26 04:20:48;;;;;;;;;;;11.10;99.90;;;;;;5061367;28;19923;-77
2022/09/26 04:23:14;;;;;;;;;;;11.10;99.90;;;;;;5061599;28;19916;-78
2022/09/26 04:25:40;;;;;;;;;;;11.10;99.90;;;;;;5062293;28;19916;-78
2022/09/26 04:28:05;;;;;;;;;;;11.20;99.90;;;;;;5061679;28;19923;-77
2022/09/26 04:30:31;;;;;;;;;;;11.20;99.90;;;;;;5062065;28;19981;-78
2022/09/26 04:32:56;;;;;;;;;;;11.20;99.90;;;;;;5062546;28;19920;-77
2022/09/26 04:35:24;;;;;;;;;;;11.30;99.90;;;;;;5060995;28;19928;-77
2022/09/26 04:37:49;;;;;;;;;;;11.30;99.90;;;;;;5062191;28;19923;-77
2022/09/26 04:40:15;;;;;;;;;;;11.30;99.90;;;;;;5062306;28;19940;-78
2022/09/26 04:42:41;;;;;;;;;;;11.30;99.90;;;;;;5060712;28;20380;-78
2022/09/26 04:45:07;;;;;;;;;;;11.30;99.90;;;;;;5061937;28;20106;-78
2022/09/26 04:47:32;;;;;;;;;;;11.40;99.90;;;;;;5062578;28;20398;-79
2022/09/26 04:49:58;;;;;;;;;;;11.40;99.90;;;;;;5062305;28;20057;-78
2022/09/26 04:52:24;;;;;;;;;;;11.30;99.90;;;;;;5061064;28;20432;-78
2022/09/26 04:54:49;;;;;;;;;;;11.30;99.90;;;;;;5062237;28;19916;-78
2022/09/26 04:57:15;;;;;;;;;;;11.20;99.90;;;;;;5053618;28;19924;-78
2022/09/26 04:59:40;;;;;;;;;;;11.30;99.90;;;;;;5062614;28;19928;-78
2022/09/26 05:02:07;;;;;;;;;;;11.20;99.90;;;;;;5063876;28;20370;-77
2022/09/26 05:04:32;;;;;;;;;;;11.20;99.90;;;;;;5061426;28;19931;-78
2022/09/26 05:06:58;;;;;;;;;;;11.30;99.90;;;;;;5060580;28;19916;-77
2022/09/26 05:09:24;;;;;;;;;;;11.20;99.90;;;;;;5062316;28;19917;-78
2022/09/26 05:11:50;;;;;;;;;;;11.20;99.90;;;;;;5061459;28;19916;-78
2022/09/26 05:14:15;;;;;;;;;;;11.20;99.90;;;;;;5061461;28;19921;-78
2022/09/26 05:16:41;;;;;;;;;;;11.20;99.90;;;;;;5061532;28;20198;-78
2022/09/26 05:19:07;;;;;;;;;;;11.10;99.90;;;;;;5059830;28;20446;-78
2022/09/26 05:21:33;;;;;;;;;;;11.10;99.90;;;;;;5060260;28;19920;-78
2022/09/26 05:26:50;;;;;;;;;;;10.90;99.90;;;;;;5061945;28;19924;-78
2022/09/26 05:29:17;;;;;;;;;;;10.80;99.90;;;;;;5062747;28;20436;-77
2022/09/26 05:31:43;;;;;;;;;;;10.90;99.90;;;;;;5065469;28;19916;-77
2022/09/26 05:34:09;;;;;;;;;;;10.90;99.90;;;;;;5066079;28;19917;-77
2022/09/26 05:36:35;;;;;;;;;;;10.90;99.90;;;;;;5066627;28;19923;-77
2022/09/26 05:39:01;;;;;;;;;;;10.80;99.90;;;;;;5058625;28;19932;-78
2022/09/26 05:41:30;;;;;;;;;;;10.80;99.90;;;;;;5065625;28;19913;-78
2022/09/26 05:43:56;;;;;;;;;;;10.70;99.90;;;;;;5065601;28;19912;-77
2022/09/26 05:46:22;;;;;;;;;;;10.60;99.90;;;;;;5064796;28;19940;-80
2022/09/26 05:48:48;;;;;;;;;;;10.60;99.90;;;;;;5065781;28;19916;-77
2022/09/26 05:51:14;;;;;;;;;;;10.60;99.90;;;;;;5065214;28;19916;-77
2022/09/26 05:53:44;;;;;;;;;;;10.40;99.90;;;;;;5065524;28;19923;-78
2022/09/26 05:56:10;;;;;;;;;;;10.50;99.90;;;;;;5066032;28;19912;-78
2022/09/26 05:58:37;;;;;;;;;;;10.50;99.90;;;;;;5063771;28;19916;-80
2022/09/26 06:01:04;;;;;;;;;;;10.50;99.90;;;;;;5065943;28;19948;-79
2022/09/26 06:03:33;;;;;;;;;;;10.50;99.90;;;;;;5065693;28;19931;-78
2022/09/26 06:06:25;;;;;;;;;;;10.70;99.90;;;;;;5065290;28;19952;-79
2022/09/26 06:08:51;;;;;;;;;;;10.90;99.90;;;;;;5063901;28;20449;-79
2022/09/26 06:11:26;;;;;;;;;;;10.90;99.90;;;;;;5066131;28;19951;-78
2022/09/26 06:13:51;;;;;;;;;;;11.10;99.90;;;;;;5065182;28;19913;-78
2022/09/26 06:16:18;;;;;;;;;;;11.20;99.90;;;;;;5065060;28;19912;-78
2022/09/26 06:18:45;;;;;;;;;;;11.20;99.90;;;;;;5065134;28;20408;-78
2022/09/26 06:21:12;;;;;;;;;;;11.40;99.90;;;;;;5064379;28;20350;-79
2022/09/26 06:23:37;;;;;;;;;;;11.50;99.90;;;;;;5064508;28;19920;-79
2022/09/26 06:26:06;;;;;;;;;;;11.30;99.90;;;;;;5065424;28;19919;-78
2022/09/26 06:28:32;;;;;;;;;;;11.40;99.90;;;;;;5065196;28;20019;-79
2022/09/26 06:30:57;;;;;;;;;;;11.40;99.90;;;;;;5065447;28;20011;-79
2022/09/26 06:33:23;;;;;;;;;;;11.50;99.90;;;;;;5063508;28;19920;-78
2022/09/26 06:35:58;;;;;;;;;;;11.40;99.90;;;;;;5064638;28;19943;-79
2022/09/26 06:38:24;;;;;;;;;;;11.40;99.90;;;;;;5063925;28;19916;-79
2022/09/26 06:40:53;;;;;;;;;;;11.30;99.90;;;;;;5064118;28;19916;-78
2022/09/26 06:43:19;;;;;;;;;;;11.20;99.90;;;;;;5080971;28;19916;-78
2022/09/26 06:45:44;;;;;;;;;;;11.30;99.90;;;;;;5084891;28;19957;-78
2022/09/26 06:48:10;;;;;;;;;;;11.60;99.90;;;;;;5117202;27;19912;-78
2022/09/26 06:50:36;;;;;;;;;;;11.70;99.90;;;;;;5117451;27;19912;-79
2022/09/26 06:53:03;;;;;;;;;;;11.60;99.90;;;;;;5084163;28;19942;-78
2022/09/26 06:55:28;;;;;;;;;;;11.40;99.90;;;;;;5085217;28;20602;-78
2022/09/26 06:57:54;;;;;;;;;;;11.40;99.90;;;;;;5081111;28;20094;-78
2022/09/26 07:00:20;;;;;;;;;;;11.10;99.90;;;;;;5064653;28;19916;-78
2022/09/26 07:02:50;;;;;;;;;;;11.10;99.90;;;;;;5064122;28;20812;-79
2022/09/26 07:05:15;;;;;;;;;;;11.00;99.90;;;;;;5064439;28;20400;-82
2022/09/26 07:07:44;;;;;;;;;;;11.10;99.90;;;;;;5064083;28;19938;-79
2022/09/26 07:10:10;;;;;;;;;;;11.30;99.90;;;;;;5064659;28;20014;-79
2022/09/26 07:12:39;;;;;;;;;;;11.30;99.90;;;;;;5063838;28;20416;-79
2022/09/26 07:15:04;;;;;;;;;;;11.40;99.90;;;;;;5063754;28;19913;-79
2022/09/26 07:17:30;;;;;;;;;;;11.50;99.90;;;;;;5063987;28;20373;-81
2022/09/26 07:19:55;;;;;;;;;;;11.70;99.90;;;;;;5063032;28;20035;-79
2022/09/26 07:22:21;;;;;;;;;;;11.70;99.90;;;;;;5061695;28;20377;-78
2022/09/26 07:24:48;;;;;;;;;;;11.80;99.90;;;;;;5064381;28;19917;-80
2022/09/26 07:27:14;;;;;;;;;;;12.00;99.90;;;;;;5063543;28;19912;-79
2022/09/26 07:29:39;;;;;;;;;;;12.30;99.90;;;;;;5063152;28;19939;-79
2022/09/26 07:32:05;;;;;;;;;;;12.10;99.90;;;;;;5063348;28;19956;-79
2022/09/26 07:34:30;;;;;;;;;;;12.20;99.90;;;;;;5063046;28;19952;-78
2022/09/26 07:36:57;;;;;;;;;;;12.10;99.90;;;;;;5062479;28;19920;-79
2022/09/26 07:39:23;;;;;;;;;;;12.00;99.90;;;;;;5062386;28;19932;-77
2022/09/26 07:41:48;;;;;;;;;;;11.80;99.90;;;;;;5063280;28;19913;-77
2022/09/26 07:44:14;;;;;;;;;;;11.90;99.90;;;;;;5063651;28;19912;-77
2022/09/26 07:52:08;;;;;;;;;;;11.70;99.90;;;;;;5063366;28;20375;-77
2022/09/26 07:54:34;;;;;;;;;;;11.90;99.90;;;;;;5062749;28;19913;-78
2022/09/26 07:57:00;;;;;;;;;;;12.00;99.90;;;;;;5063153;28;19913;-77
2022/09/26 07:59:26;;;;;;;;;;;12.30;99.90;;;;;;5063166;28;19927;-78
2022/09/26 08:01:53;;;;;;;;;;;12.30;99.90;;;;;;5062731;28;19935;-77
2022/09/26 08:04:18;;;;;;;;;;;12.50;99.90;;;;;;5061518;28;20020;-77
2022/09/26 08:06:44;;;;;;;;;;;12.90;99.90;;;;;;5063065;28;20663;-77
2022/09/26 08:09:10;;;;;;;;;;;13.10;99.90;;;;;;5063200;28;19912;-77
2022/09/26 08:11:36;;;;;;;;;;;13.40;99.90;;;;;;5063160;28;19912;-77
2022/09/26 08:14:02;;;;;;;;;;;13.50;99.90;;;;;;5063047;28;19939;-77
2022/09/26 08:16:28;;;;;;;;;;;13.50;99.90;;;;;;5062310;28;20003;-77
2022/09/26 08:18:53;;;;;;;;;;;13.40;99.90;;;;;;5062631;28;19920;-77
2022/09/26 08:21:19;;;;;;;;;;;13.30;99.90;;;;;;5062163;28;20080;-78
2022/09/26 08:23:45;;;;;;;;;;;13.50;99.90;;;;;;5063094;28;19995;-77
2022/09/26 08:26:11;;;;;;;;;;;13.70;99.90;;;;;;5063534;28;19912;-77
2022/09/26 08:28:37;;;;;;;;;;;13.70;99.90;;;;;;5063043;28;20352;-77
2022/09/26 08:31:03;;;;;;;;;;;13.60;99.90;;;;;;5063097;28;19913;-77
2022/09/26 08:33:33;;;;;;;;;;;13.70;99.90;;;;;;5062933;28;19912;-77
2022/09/26 08:36:05;;;;;;;;;;;13.70;99.90;;;;;;5063115;28;20030;-77
2022/09/26 08:38:31;;;;;;;;;;;13.70;99.90;;;;;;5063031;28;19924;-78
2022/09/26 08:41:16;;;;;;;;;;;13.70;99.90;;;;;;5061992;28;19920;-77
2022/09/26 08:43:56;;;;;;;;;;;13.60;99.90;;;;;;5062702;28;19917;-77
2022/09/26 08:46:42;;;;;;;;;;;13.80;99.90;;;;;;5062064;28;19913;-78
2022/09/26 08:49:13;;;;;;;;;;;14.00;99.90;;;;;;5076459;28;20054;-78
2022/09/26 08:51:42;;;;;;;;;;;13.80;99.90;;;;;;5062551;28;19913;-78
2022/09/26 08:54:11;;;;;;;;;;;13.70;99.90;;;;;;5061332;28;19920;-78
2022/09/26 08:56:39;;;;;;;;;;;13.80;99.90;;;;;;5083345;28;19961;-77
2022/09/26 08:59:05;;;;;;;;;;;13.80;99.90;;;;;;5065965;28;20142;-77
2022/09/26 09:01:38;;;;;;;;;;;13.80;99.90;;;;;;5069831;28;19912;-78
2022/09/26 09:04:03;;;;;;;;;;;13.90;99.90;;;;;;5082475;28;19924;-77
2022/09/26 09:06:29;;;;;;;;;;;14.10;99.90;;;;;;5085069;28;20607;-78
2022/09/26 09:08:56;;;;;;;;;;;14.40;99.90;;;;;;5086754;28;19916;-77
2022/09/26 09:11:21;;;;;;;;;;;14.90;99.90;;;;;;5086660;28;19914;-77
2022/09/26 09:14:13;;;;;;;;;;;15.90;99.90;;;;;;5086506;28;19912;-77
2022/09/26 09:16:52;;;;;;;;;;;16.30;99.90;;;;;;5063526;28;19912;-78
2022/09/26 09:19:35;;;;;;;;;;;16.30;99.90;;;;;;5065700;28;19974;-78
2022/09/26 09:22:06;;;;;;;;;;;15.70;99.90;;;;;;5065887;28;19923;-77
2022/09/26 09:24:41;;;;;;;;;;;15.50;99.90;;;;;;5065834;28;20789;-77
2022/09/26 09:27:22;;;;;;;;;;;15.50;99.90;;;;;;5065711;28;19916;-78
2022/09/26 09:29:48;;;;;;;;;;;15.60;99.90;;;;;;5084385;28;19919;-77
2022/09/26 09:32:16;;;;;;;;;;;15.30;99.90;;;;;;5081283;28;19913;-77
2022/09/26 09:34:43;;;;;;;;;;;15.50;99.90;;;;;;5082856;28;19936;-77
2022/09/26 09:37:17;;;;;;;;;;;16.00;99.90;;;;;;5086045;28;20007;-78
2022/09/26 09:39:44;;;;;;;;;;;16.20;99.90;;;;;;5086042;28;19927;-78
2022/09/26 09:42:17;;;;;;;;;;;17.70;99.90;;;;;;5085010;28;20443;-78
2022/09/26 09:44:43;;;;;;;;;;;19.00;99.90;;;;;;5085845;28;19931;-77
2022/09/26 09:47:13;;;;;;;;;;;19.10;99.90;;;;;;5080152;28;20002;-78
2022/09/26 09:49:40;;;;;;;;;;;18.40;99.90;;;;;;5064974;28;20503;-79
2022/09/26 09:52:15;;;;;;;;;;;18.00;99.90;;;;;;5066362;28;19919;-79
2022/09/26 09:54:40;;;;;;;;;;;18.10;99.90;;;;;;5072853;28;19984;-80
2022/09/26 09:57:32;;;;;;;;;;;18.80;99.90;;;;;;5064074;28;19920;-80
2022/09/26 10:00:07;;;;;;;;;;;18.60;99.90;;;;;;5060141;28;20309;-80
2022/09/26 10:02:42;;;;;;;;;;;18.00;99.90;;;;;;5053532;28;19927;-79
2022/09/26 10:05:12;;;;;;;;;;;17.80;99.90;;;;;;5045676;28;19913;-80
2022/09/26 10:07:37;;;;;;;;;;;18.60;99.90;;;;;;5053750;28;20034;-79
2022/09/26 10:10:04;;;;;;;;;;;18.00;99.90;;;;;;5047848;28;20405;-80
2022/09/26 10:12:33;;;;;;;;;;;18.40;99.90;;;;;;5069043;28;19923;-80
2022/09/26 10:15:01;;;;;;;;;;;17.90;99.90;;;;;;5077303;28;19961;-79
2022/09/26 10:17:27;;;;;;;;;;;18.00;99.90;;;;;;5064347;28;19916;-79
2022/09/26 10:19:52;;;;;;;;;;;18.10;99.90;;;;;;5062601;28;19985;-80
2022/09/26 10:22:28;;;;;;;;;;;17.40;99.90;;;;;;5068217;28;19921;-79
2022/09/26 10:25:12;;;;;;;;;;;17.00;99.90;;;;;;5063199;28;19916;-80
2022/09/26 10:27:38;;;;;;;;;;;17.00;99.90;;;;;;5071380;28;19917;-79
2022/09/26 10:30:06;;;;;;;;;;;16.80;99.90;;;;;;5085256;28;19912;-79
2022/09/26 10:32:40;;;;;;;;;;;17.00;99.90;;;;;;5070317;28;19912;-78
2022/09/26 10:35:17;;;;;;;;;;;17.20;99.90;;;;;;5064839;28;19916;-78
2022/09/26 10:37:45;;;;;;;;;;;17.20;99.90;;;;;;5064905;28;19912;-79
2022/09/26 10:43:24;;;;;;;;;;;17.80;99.90;;;;;;5075913;28;20502;-79
2022/09/26 10:45:53;;;;;;;;;;;17.30;99.90;;;;;;5074728;28;20377;-79
2022/09/26 10:48:20;;;;;;;;;;;17.60;99.90;;;;;;5063794;28;20008;-78
2022/09/26 10:50:49;;;;;;;;;;;17.60;99.90;;;;;;5064703;28;19938;-79
2022/09/26 10:53:16;;;;;;;;;;;17.80;99.90;;;;;;5063935;28;19916;-80
2022/09/26 10:55:48;;;;;;;;;;;17.80;99.90;;;;;;5066182;28;19916;-80
2022/09/26 10:58:16;;;;;;;;;;;17.60;99.90;;;;;;5063905;28;19920;-79
2022/09/26 11:00:43;;;;;;;;;;;17.90;99.90;;;;;;5070641;28;20014;-79
2022/09/26 11:03:11;;;;;;;;;;;17.70;99.90;;;;;;5062360;28;19924;-79
2022/09/26 11:05:57;;;;;;;;;;;18.00;99.90;;;;;;5063538;28;20009;-79
2022/09/26 11:08:32;;;;;;;;;;;17.90;99.90;;;;;;5062640;28;20003;-79
2022/09/26 11:11:03;;;;;;;;;;;18.30;99.90;;;;;;5070948;28;19916;-79
2022/09/26 11:13:37;;;;;;;;;;;18.10;99.90;;;;;;5083777;28;19912;-79
2022/09/26 11:16:11;;;;;;;;;;;18.10;99.90;;;;;;5067293;28;20667;-78
2022/09/26 11:18:45;;;;;;;;;;;18.30;99.90;;;;;;5063232;28;19967;-79
2022/09/26 11:21:27;;;;;;;;;;;18.70;99.90;;;;;;5063238;28;19920;-78
2022/09/26 11:24:13;;;;;;;;;;;19.40;99.90;;;;;;5048566;28;20011;-79
2022/09/26 11:27:08;;;;;;;;;;;19.50;99.90;;;;;;5082404;28;20304;-78
2022/09/26 11:29:43;;;;;;;;;;;19.70;99.90;;;;;;5021320;28;19917;-78
2022/09/26 11:32:12;;;;;;;;;;;19.80;99.90;;;;;;5021530;28;19921;-77
2022/09/26 11:34:39;;;;;;;;;;;19.20;99.90;;;;;;5039522;28;19974;-78
2022/09/26 11:37:08;;;;;;;;;;;19.00;99.90;;;;;;5036539;28;19913;-78
2022/09/26 11:39:52;;;;;;;;;;;18.80;99.90;;;;;;5020098;28;20002;-78
2022/09/26 11:42:27;;;;;;;;;;;18.50;99.90;;;;;;5028915;28;20027;-78
2022/09/26 11:45:12;;;;;;;;;;;18.70;99.90;;;;;;5021838;28;20004;-78
2022/09/26 11:47:38;;;;;;;;;;;18.90;98.80;;;;;;5032574;28;19913;-77
2022/09/26 11:50:22;;;;;;;;;;;18.80;98.90;;;;;;5032656;28;20664;-78
2022/09/26 11:52:54;;;;;;;;;;;18.60;99.90;;;;;;5033020;28;19917;-78
2022/09/26 11:55:19;;;;;;;;;;;18.40;99.80;;;;;;5036083;28;19917;-78
2022/09/26 11:58:04;;;;;;;;;;;18.20;99.10;;;;;;5024789;28;20016;-78
2022/09/26 12:00:39;;;;;;;;;;;17.60;99.50;;;;;;5039424;28;19920;-78
2022/09/26 12:03:35;;;;;;;;;;;17.70;99.90;;;;;;5016601;28;19921;-79
2022/09/26 12:06:13;;;;;;;;;;;17.80;99.90;;;;;;4932565;29;20762;-78
2022/09/26 12:08:41;;;;;;;;;;;17.80;99.90;;;;;;4942030;29;19967;-77
2022/09/26 12:11:16;;;;;;;;;;;18.10;99.90;;;;;;4940953;29;20652;-78
2022/09/26 12:13:53;;;;;;;;;;;18.50;99.90;;;;;;4942478;29;20522;-79
2022/09/26 12:16:22;;;;;;;;;;;18.70;96.70;;;;;;4941597;29;19966;-78
2022/09/26 12:18:47;;;;;;;;;;;18.60;98.60;;;;;;4941197;29;20408;-82
2022/09/26 12:21:15;;;;;;;;;;;19.00;97.80;;;;;;4941937;29;19974;-78
2022/09/26 12:23:44;;;;;;;;;;;18.90;97.10;;;;;;4942237;29;19918;-80
2022/09/26 12:26:19;;;;;;;;;;;18.80;96.90;;;;;;4942485;29;19914;-82
2022/09/26 12:28:45;;;;;;;;;;;19.20;96.90;;;;;;4940664;29;19954;-80
2022/09/26 12:31:31;;;;;;;;;;;19.40;95.90;;;;;;4942140;29;19914;-81
2022/09/26 12:34:23;;;;;;;;;;;19.30;95.40;;;;;;4941442;29;20332;-81
2022/09/26 12:36:49;;;;;;;;;;;19.20;95.90;;;;;;4903140;29;19919;-80
2022/09/26 12:39:15;;;;;;;;;;;19.30;96.10;;;;;;4902696;29;20095;-83
2022/09/26 12:41:40;;;;;;;;;;;19.00;94.70;;;;;;4917769;28;20469;-80
2022/09/26 12:44:06;;;;;;;;;;;18.90;95.20;;;;;;4964482;28;19922;-81
2022/09/26 12:46:47;;;;;;;;;;;18.70;95.30;;;;;;4963436;28;19933;-81
2022/09/26 12:49:13;;;;;;;;;;;18.40;95.40;;;;;;4963605;28;20430;-81
2022/09/26 12:51:43;;;;;;;;;;;18.60;95.00;;;;;;4964814;28;19918;-81
2022/09/26 12:54:09;;;;;;;;;;;18.30;93.50;;;;;;4964397;28;19930;-82
2022/09/26 12:56:46;;;;;;;;;;;18.00;93.30;;;;;;4964360;28;19931;-81
2022/09/26 12:59:20;;;;;;;;;;;17.90;94.50;;;;;;4964915;28;19922;-81
2022/09/26 13:01:55;;;;;;;;;;;17.80;94.30;;;;;;4965224;28;20016;-82
2022/09/26 13:04:29;;;;;;;;;;;18.00;94.30;;;;;;4964810;28;20669;-81
2022/09/26 13:06:57;;;;;;;;;;;18.00;94.10;;;;;;4964942;28;19957;-81
2022/09/26 13:09:42;;;;;;;;;;;18.00;93.80;;;;;;4964500;28;19982;-81
2022/09/26 13:12:10;;;;;;;;;;;18.00;93.10;;;;;;4964933;28;19918;-81
2022/09/26 13:14:37;;;;;;;;;;;17.70;92.70;;;;;;5018501;28;20365;-81
2022/09/26 13:17:08;;;;;;;;;;;17.90;93.00;;;;;;5044813;28;19995;-81
2022/09/26 13:19:52;;;;;;;;;;;18.00;92.40;;;;;;5046024;28;19921;-81
2022/09/26 13:22:39;;;;;;;;;;;18.00;91.50;;;;;;5046125;28;19920;-82
2022/09/26 13:25:18;;;;;;;;;;;18.50;91.10;;;;;;5065264;28;20511;-81
2022/09/26 13:27:47;;;;;;;;;;;18.60;89.70;;;;;;5065679;28;19920;-82
2022/09/26 13:30:16;;;;;;;;;;;18.30;90.00;;;;;;5065412;28;19951;-82
2022/09/26 13:32:59;;;;;;;;;;;18.10;87.50;;;;;;5057916;28;20400;-81
2022/09/26 13:35:26;;;;;;;;;;;17.50;89.10;;;;;;5045627;28;19917;-81
2022/09/26 13:38:08;;;;;;;;;;;17.30;90.40;;;;;;5044882;28;19936;-80
2022/09/26 13:40:42;;;;;;;;;;;17.30;90.40;;;;;;5044149;28;19931;-81
2022/09/26 13:43:13;;;;;;;;;;;17.60;90.70;;;;;;5044258;28;19939;-82
2022/09/26 13:45:39;;;;;;;;;;;17.70;90.30;;;;;;5045710;28;20015;-82
2022/09/26 13:48:09;;;;;;;;;;;18.00;90.80;;;;;;5045539;28;20008;-82
2022/09/26 13:50:46;;;;;;;;;;;18.10;90.30;;;;;;5044728;28;20464;-82
2022/09/26 13:53:20;;;;;;;;;;;18.40;91.00;;;;;;5044941;28;19912;-82
2022/09/26 13:56:18;;;;;;;;;;;18.40;91.10;;;;;;5045983;28;19924;-81
2022/09/26 13:58:44;;;;;;;;;;;18.10;91.10;;;;;;4963627;28;19933;-81
2022/09/26 14:01:23;;;;;;;;;;;18.30;91.50;;;;;;4964261;28;20001;-82
2022/09/26 14:03:48;;;;;;;;;;;18.40;90.60;;;;;;4988491;28;20765;-81
2022/09/26 14:06:24;;;;;;;;;;;18.40;91.10;;;;;;5003048;28;19996;-82
2022/09/26 14:11:47;;;;;;;;;;;18.50;90.60;;;;;;5003324;28;19920;-82
2022/09/26 14:14:14;;;;;;;;;;;18.40;89.80;;;;;;5003735;28;20700;-82
2022/09/26 14:16:40;;;;;;;;;;;18.20;89.20;;;;;;5022540;28;19939;-82
2022/09/26 14:19:05;;;;;;;;;;;17.70;90.30;;;;;;5017958;28;20430;-83
2022/09/26 14:21:37;;;;;;;;;;;17.40;90.80;;;;;;5007869;28;20725;-84
2022/09/26 14:24:17;;;;;;;;;;;17.20;91.30;;;;;;5006252;28;19987;-83
2022/09/26 14:26:43;;;;;;;;;;;17.10;91.00;;;;;;5022353;28;20398;-83
2022/09/26 14:29:27;;;;;;;;;;;17.10;91.70;;;;;;5021913;28;19920;-83
2022/09/26 14:32:03;;;;;;;;;;;17.30;91.20;;;;;;5021534;28;19921;-83
2022/09/26 14:34:34;;;;;;;;;;;17.50;91.30;;;;;;5034136;28;19912;-83
2022/09/26 14:37:02;;;;;;;;;;;17.70;90.80;;;;;;5044550;28;19963;-83
2022/09/26 14:39:42;;;;;;;;;;;17.70;90.90;;;;;;5044558;28;19921;-83
2022/09/26 14:42:16;;;;;;;;;;;17.90;90.70;;;;;;5044964;28;19917;-83
2022/09/26 14:44:47;;;;;;;;;;;17.90;90.70;;;;;;5044865;28;19919;-84
2022/09/26 14:47:14;;;;;;;;;;;17.90;91.00;;;;;;5044368;28;19920;-83